Avella, Pennsylvania
Current Conditions -  °F | °C
As of 11:35 PM on Thursday 18 Dec 2014 (Local Time) from KHLG Reporting Station
Overcast Overcast  
Wind Chill: -6°   Ceiling: 1400
Heat Index: -3°   Visibility: 8mi
Dew Point: -6°   Wind: 5mph
Humidity: 81%   Direction: 270°W
Pressure: 30.16"   Gusts: NA
Location:  40.28°N, 80.46°W
Report Text: KHLG 190435Z AUTO 27004KT 8SM BKN014 OVC019 M03/M06 A3016 RMK AO2 T10281056
Loading
Personal Weather Stations






























Interactive Weather Map New forecast layout! Learn more

10-Day Weather Forecast

Advertisements
Track Severe Weather on mobile